Time;durP1;ratioP1;P1;durP2;ratioP2;P2;SDS_P1;SDS_P2;PMS_P1;PMS_P2;Temp;Humidity;BMP_temperature;BMP_pressure;BME280_temperature;BME280_humidity;BME280_pressure;Samples;Min_cycle;Max_cycle;Signal;HPM_P1;HPM_P2
2023/12/12 00:01:54;;;;;;;2.25;0.63;;;10.20;89.60;;;;;;4996836;28;20084;-65
2023/12/12 00:04:19;;;;;;;1.15;0.45;;;10.20;88.80;;;;;;4994923;28;20100;-65
2023/12/12 00:06:45;;;;;;;2.15;0.70;;;10.20;88.80;;;;;;4995254;28;20026;-64
2023/12/12 00:09:10;;;;;;;1.30;0.68;;;10.20;88.80;;;;;;4996376;28;20088;-65
2023/12/12 00:11:36;;;;;;;1.25;0.60;;;10.20;88.90;;;;;;4995440;28;20572;-65
2023/12/12 00:14:02;;;;;;;1.40;0.80;;;10.20;88.90;;;;;;4996610;28;20026;-64
2023/12/12 00:16:27;;;;;;;2.42;0.65;;;10.20;88.90;;;;;;4995224;28;20118;-65
2023/12/12 00:18:53;;;;;;;0.90;0.70;;;10.20;88.80;;;;;;4996232;28;20477;-65
2023/12/12 00:21:18;;;;;;;1.13;0.75;;;10.20;88.90;;;;;;4995874;28;20033;-65
2023/12/12 00:23:44;;;;;;;2.17;0.90;;;10.20;88.90;;;;;;4995677;28;20149;-65
2023/12/12 00:26:12;;;;;;;1.67;0.90;;;10.20;88.80;;;;;;4997189;28;20531;-64
2023/12/12 00:28:38;;;;;;;4.10;0.90;;;10.10;88.70;;;;;;4993225;28;20038;-65
2023/12/12 00:31:04;;;;;;;1.60;0.73;;;10.10;88.80;;;;;;4995266;28;20038;-64
2023/12/12 00:33:30;;;;;;;1.40;0.80;;;10.10;88.80;;;;;;4993983;28;20398;-64
2023/12/12 00:35:59;;;;;;;1.10;1.00;;;10.10;88.80;;;;;;4996954;28;20065;-64
2023/12/12 00:38:28;;;;;;;0.93;0.80;;;10.10;89.00;;;;;;5001114;28;20030;-64
2023/12/12 00:40:55;;;;;;;4.03;0.65;;;10.10;89.00;;;;;;4998512;28;20124;-64
2023/12/12 00:43:22;;;;;;;1.25;0.82;;;10.10;89.20;;;;;;4996923;28;20034;-64
2023/12/12 00:45:48;;;;;;;2.22;0.82;;;10.10;89.20;;;;;;4999662;28;20496;-65
2023/12/12 00:48:13;;;;;;;2.42;0.90;;;10.10;89.30;;;;;;4999414;28;20113;-64
2023/12/12 00:50:39;;;;;;;1.15;0.68;;;10.10;89.30;;;;;;4999027;28;20517;-64
2023/12/12 00:53:04;;;;;;;2.00;0.90;;;10.10;89.30;;;;;;5000101;28;20035;-65
2023/12/12 00:55:30;;;;;;;1.48;0.98;;;10.10;89.30;;;;;;4998504;28;20058;-65
2023/12/12 00:57:59;;;;;;;1.20;0.90;;;10.10;89.30;;;;;;4997951;28;20414;-65
2023/12/12 01:00:24;;;;;;;1.67;0.70;;;10.00;89.50;;;;;;4997737;28;20041;-65
2023/12/12 01:02:50;;;;;;;1.58;0.80;;;10.00;89.20;;;;;;5001148;28;20026;-64
2023/12/12 01:05:16;;;;;;;0.98;0.88;;;10.10;89.20;;;;;;4998674;28;20040;-64
2023/12/12 01:07:41;;;;;;;2.58;0.75;;;10.00;89.10;;;;;;4999838;28;20034;-64
2023/12/12 01:10:07;;;;;;;2.25;0.75;;;10.00;89.10;;;;;;4996426;28;20045;-64
2023/12/12 01:12:33;;;;;;;2.15;0.90;;;10.00;89.00;;;;;;4997173;28;20517;-64
2023/12/12 01:14:59;;;;;;;1.92;0.90;;;10.00;89.00;;;;;;4995851;28;20501;-64
2023/12/12 01:17:28;;;;;;;0.90;0.75;;;10.00;89.00;;;;;;4996556;28;20030;-64
2023/12/12 01:19:54;;;;;;;0.75;0.68;;;10.00;89.00;;;;;;4996062;28;20042;-64
2023/12/12 01:22:19;;;;;;;1.83;0.68;;;10.00;89.00;;;;;;4997617;28;20113;-64
2023/12/12 01:24:45;;;;;;;1.83;0.93;;;10.00;89.10;;;;;;4997165;28;20043;-65
2023/12/12 01:27:11;;;;;;;1.58;1.05;;;9.90;89.00;;;;;;4996728;28;20456;-65
2023/12/12 01:29:37;;;;;;;1.08;0.70;;;9.90;89.00;;;;;;4996763;28;20469;-64
2023/12/12 01:32:03;;;;;;;1.15;0.85;;;9.90;89.90;;;;;;4996900;28;20030;-64
2023/12/12 01:34:28;;;;;;;1.60;0.70;;;9.90;89.00;;;;;;4997636;28;20034;-65
2023/12/12 01:36:54;;;;;;;1.55;0.80;;;9.80;89.10;;;;;;4997723;28;20068;-65
2023/12/12 01:39:20;;;;;;;1.05;0.88;;;9.80;89.20;;;;;;4995304;28;20060;-65
2023/12/12 01:41:47;;;;;;;0.88;0.75;;;9.80;89.30;;;;;;4997976;28;20058;-65
2023/12/12 01:44:12;;;;;;;2.05;0.90;;;9.70;89.20;;;;;;4996563;28;20022;-65
2023/12/12 01:46:38;;;;;;;1.27;0.85;;;9.70;89.20;;;;;;4996882;28;20034;-65
2023/12/12 01:49:05;;;;;;;0.90;0.80;;;9.70;89.20;;;;;;4997913;28;20027;-64
2023/12/12 01:51:31;;;;;;;3.47;1.10;;;9.60;89.00;;;;;;4994731;28;20401;-65
2023/12/12 01:53:59;;;;;;;1.67;1.10;;;9.60;89.00;;;;;;4996575;28;20031;-65
2023/12/12 01:56:25;;;;;;;1.92;1.00;;;9.60;88.80;;;;;;4996943;28;20025;-64
2023/12/12 01:58:53;;;;;;;2.30;1.17;;;9.50;88.80;;;;;;4997631;28;20038;-65
2023/12/12 02:01:20;;;;;;;3.55;1.10;;;9.50;88.80;;;;;;5002292;28;20042;-65
2023/12/12 02:03:46;;;;;;;2.63;1.30;;;9.40;88.80;;;;;;4997555;28;20038;-64
2023/12/12 02:06:15;;;;;;;1.40;1.30;;;9.40;88.80;;;;;;4996444;28;20529;-64
2023/12/12 02:08:42;;;;;;;2.05;1.13;;;9.30;88.70;;;;;;4996672;28;20125;-64
2023/12/12 02:11:08;;;;;;;2.47;1.38;;;9.30;88.70;;;;;;4998356;28;20128;-65
2023/12/12 02:13:33;;;;;;;2.88;1.50;;;9.20;88.70;;;;;;4998489;28;20129;-65
2023/12/12 02:15:59;;;;;;;2.22;1.52;;;9.20;88.80;;;;;;4996502;28;20528;-64
2023/12/12 02:18:24;;;;;;;1.83;1.45;;;9.10;88.80;;;;;;5011480;28;20069;-64
2023/12/12 02:20:50;;;;;;;3.25;1.50;;;9.00;88.80;;;;;;4995858;28;20085;-65
2023/12/12 02:23:16;;;;;;;2.15;1.65;;;9.00;88.80;;;;;;4996386;28;20041;-64
2023/12/12 02:25:42;;;;;;;1.88;1.63;;;9.00;88.90;;;;;;4996446;28;20599;-64
2023/12/12 02:28:08;;;;;;;2.42;1.60;;;8.90;89.00;;;;;;4997026;28;20042;-64
2023/12/12 02:30:35;;;;;;;2.00;1.80;;;8.80;89.10;;;;;;4996004;28;20518;-64
2023/12/12 02:33:01;;;;;;;4.15;1.80;;;8.80;89.20;;;;;;4995623;28;20038;-64
2023/12/12 02:35:29;;;;;;;2.08;1.70;;;8.80;89.20;;;;;;4998075;28;20120;-64
2023/12/12 02:37:54;;;;;;;1.85;1.73;;;8.80;89.30;;;;;;4996847;28;20035;-64
2023/12/12 02:40:20;;;;;;;2.30;1.70;;;8.70;89.40;;;;;;4996662;28;20044;-65
2023/12/12 02:42:46;;;;;;;2.42;1.77;;;8.70;89.50;;;;;;4998369;28;20034;-64
2023/12/12 02:45:12;;;;;;;1.95;1.70;;;8.70;89.50;;;;;;4995447;28;20095;-65
2023/12/12 02:47:38;;;;;;;3.08;1.65;;;8.70;89.50;;;;;;4994847;28;20606;-64
2023/12/12 02:50:04;;;;;;;4.30;1.88;;;8.70;89.60;;;;;;4994053;28;20426;-64
2023/12/12 02:52:29;;;;;;;2.53;1.90;;;8.70;89.50;;;;;;4996071;28;20030;-64
2023/12/12 02:54:55;;;;;;;3.53;2.15;;;8.70;89.50;;;;;;4996210;28;20052;-64
2023/12/12 02:57:22;;;;;;;2.72;1.98;;;8.70;89.30;;;;;;4996462;28;20104;-64
2023/12/12 02:59:48;;;;;;;2.40;2.10;;;8.60;89.30;;;;;;4996999;28;20121;-64
2023/12/12 03:02:13;;;;;;;2.63;1.95;;;8.60;89.30;;;;;;4997868;28;20129;-64
2023/12/12 03:04:45;;;;;;;2.25;1.90;;;8.60;89.20;;;;;;4996592;28;20030;-64
2023/12/12 03:07:12;;;;;;;2.90;2.42;;;8.50;89.00;;;;;;4996556;28;20521;-65
2023/12/12 03:09:37;;;;;;;3.50;2.83;;;8.50;89.00;;;;;;4997058;28;20121;-65
2023/12/12 03:12:03;;;;;;;3.65;2.80;;;8.50;89.30;;;;;;4996298;28;20141;-65
2023/12/12 03:14:29;;;;;;;5.22;2.90;;;8.40;89.50;;;;;;4994567;28;20101;-64
2023/12/12 03:16:58;;;;;;;4.85;2.83;;;8.40;89.70;;;;;;4995369;28;20281;-65
2023/12/12 03:19:24;;;;;;;4.00;2.80;;;8.30;90.00;;;;;;4995322;28;20030;-65
2023/12/12 03:21:50;;;;;;;4.60;2.90;;;8.30;90.00;;;;;;4994586;28;20103;-65
2023/12/12 03:24:16;;;;;;;2.70;2.50;;;8.20;90.00;;;;;;4996001;28;20033;-65
2023/12/12 03:26:43;;;;;;;2.92;2.42;;;8.20;90.00;;;;;;4993663;28;20038;-65
2023/12/12 03:29:08;;;;;;;4.07;2.80;;;8.20;90.00;;;;;;4994941;28;20084;-64
2023/12/12 03:31:34;;;;;;;4.65;2.67;;;8.20;90.10;;;;;;4997218;28;20038;-64
2023/12/12 03:34:02;;;;;;;3.72;2.63;;;8.30;90.10;;;;;;4997365;28;20037;-65
2023/12/12 03:36:28;;;;;;;6.00;2.90;;;8.30;90.00;;;;;;4997625;28;20038;-65
2023/12/12 03:38:53;;;;;;;3.65;2.80;;;8.30;90.00;;;;;;4997979;28;20402;-64
2023/12/12 03:41:19;;;;;;;3.70;2.90;;;8.30;89.80;;;;;;4996984;28;20042;-64
2023/12/12 03:43:45;;;;;;;4.32;2.90;;;8.30;89.50;;;;;;4997323;28;20493;-65
2023/12/12 03:46:15;;;;;;;3.92;2.95;;;8.30;89.70;;;;;;4998352;28;20046;-64
2023/12/12 03:48:40;;;;;;;2.67;2.47;;;8.30;89.70;;;;;;4997510;28;20058;-65
2023/12/12 03:51:12;;;;;;;4.00;2.80;;;8.30;89.80;;;;;;4998314;28;20112;-65
2023/12/12 03:53:39;;;;;;;3.30;2.70;;;8.20;89.70;;;;;;4997610;28;20034;-65
2023/12/12 03:56:08;;;;;;;3.15;2.60;;;8.20;89.70;;;;;;4997879;28;20044;-65
2023/12/12 03:58:34;;;;;;;3.05;2.60;;;8.20;89.80;;;;;;4998030;28;20299;-65
2023/12/12 04:01:00;;;;;;;2.72;2.50;;;8.20;89.90;;;;;;4997447;28;20062;-65
2023/12/12 04:03:26;;;;;;;4.40;2.60;;;8.20;90.30;;;;;;4997195;28;20140;-64
2023/12/12 04:05:51;;;;;;;3.28;2.80;;;8.20;90.00;;;;;;4996252;28;20042;-65
2023/12/12 04:08:17;;;;;;;4.55;3.30;;;8.20;90.00;;;;;;4995978;28;20034;-65
2023/12/12 04:10:43;;;;;;;4.10;2.80;;;8.20;90.10;;;;;;4997843;28;20057;-65
2023/12/12 04:13:09;;;;;;;4.07;3.13;;;8.20;90.20;;;;;;4999100;28;20413;-65
2023/12/12 04:15:34;;;;;;;3.90;3.00;;;8.20;90.20;;;;;;4998664;28;20446;-65
2023/12/12 04:18:00;;;;;;;4.18;3.40;;;8.20;90.30;;;;;;4997310;28;20108;-65
2023/12/12 04:20:25;;;;;;;3.88;3.55;;;8.20;90.30;;;;;;4999022;28;20045;-64
2023/12/12 04:22:51;;;;;;;4.32;3.50;;;8.30;90.30;;;;;;5000176;28;20041;-65
2023/12/12 04:25:17;;;;;;;3.92;3.50;;;8.20;90.60;;;;;;4999733;28;20022;-64
2023/12/12 04:27:42;;;;;;;4.25;3.50;;;8.30;90.40;;;;;;4998413;28;20049;-65
2023/12/12 04:30:08;;;;;;;5.75;3.58;;;8.30;90.30;;;;;;5000700;28;20125;-65
2023/12/12 04:32:34;;;;;;;3.63;3.33;;;8.30;90.30;;;;;;5000128;28;20084;-65
2023/12/12 04:35:00;;;;;;;4.22;3.05;;;8.30;90.30;;;;;;5000899;28;20785;-65
2023/12/12 04:37:26;;;;;;;3.67;2.78;;;8.30;90.40;;;;;;5001124;28;20030;-65
2023/12/12 04:39:52;;;;;;;4.70;3.00;;;8.20;90.40;;;;;;4999097;28;20131;-65
2023/12/12 04:42:17;;;;;;;3.88;3.03;;;8.20;90.60;;;;;;5000075;28;21171;-65
2023/12/12 04:44:43;;;;;;;3.65;2.88;;;8.30;90.60;;;;;;4998361;28;20081;-65
2023/12/12 04:47:09;;;;;;;3.15;2.40;;;8.30;90.60;;;;;;5012238;28;20077;-65
2023/12/12 04:49:35;;;;;;;2.50;2.30;;;8.30;90.60;;;;;;4998229;28;20410;-65
2023/12/12 04:52:01;;;;;;;3.10;2.78;;;8.30;90.60;;;;;;4998396;28;20041;-65
2023/12/12 04:54:27;;;;;;;2.47;2.00;;;8.30;90.60;;;;;;5000107;28;20026;-65
2023/12/12 04:56:52;;;;;;;1.63;1.30;;;8.30;90.50;;;;;;5000304;28;20037;-65
2023/12/12 04:59:21;;;;;;;1.02;0.85;;;8.40;90.70;;;;;;4999906;28;20541;-65
2023/12/12 05:01:46;;;;;;;0.95;0.80;;;8.40;90.80;;;;;;4999706;28;20108;-64
2023/12/12 05:04:12;;;;;;;1.20;0.80;;;8.40;90.90;;;;;;5000437;28;20573;-65
2023/12/12 05:06:40;;;;;;;0.80;0.77;;;8.50;91.00;;;;;;5000328;28;20164;-65
2023/12/12 05:09:06;;;;;;;0.73;0.50;;;8.50;91.00;;;;;;5000029;28;20116;-65
2023/12/12 05:11:31;;;;;;;1.50;0.50;;;8.60;91.10;;;;;;4999536;28;20166;-64
2023/12/12 05:13:57;;;;;;;0.85;0.60;;;8.60;91.20;;;;;;4996853;28;20554;-64
2023/12/12 05:16:23;;;;;;;0.70;0.68;;;8.60;91.20;;;;;;4999443;28;20096;-64
2023/12/12 05:18:49;;;;;;;0.52;0.40;;;8.70;91.20;;;;;;4997071;28;20048;-64
2023/12/12 05:21:14;;;;;;;0.90;0.40;;;8.70;91.20;;;;;;4995086;28;20422;-64
2023/12/12 05:23:41;;;;;;;0.90;0.45;;;8.70;91.30;;;;;;4997595;28;20030;-64
2023/12/12 05:26:06;;;;;;;0.30;0.20;;;8.80;91.20;;;;;;4997142;28;20410;-65
2023/12/12 05:28:32;;;;;;;0.43;0.32;;;8.80;91.20;;;;;;5012398;28;20060;-65
2023/12/12 05:30:58;;;;;;;0.30;0.20;;;8.80;91.20;;;;;;4999148;28;20034;-63
2023/12/12 05:33:23;;;;;;;0.47;0.28;;;8.90;91.20;;;;;;4999636;28;20095;-64
2023/12/12 05:35:49;;;;;;;0.32;0.32;;;8.90;91.20;;;;;;4999829;28;20037;-65
2023/12/12 05:38:15;;;;;;;1.63;0.40;;;8.90;91.20;;;;;;5001167;28;20034;-65
2023/12/12 05:40:40;;;;;;;1.30;1.13;;;8.90;91.20;;;;;;5000204;28;20030;-65
2023/12/12 05:43:06;;;;;;;0.70;0.40;;;8.90;91.10;;;;;;5001707;28;20030;-65
2023/12/12 05:45:32;;;;;;;0.68;0.40;;;9.00;91.20;;;;;;5000322;28;20424;-64
2023/12/12 05:47:58;;;;;;;5.10;0.57;;;9.00;91.20;;;;;;5000312;28;20472;-64
2023/12/12 05:50:24;;;;;;;2.67;0.60;;;9.00;91.10;;;;;;5001381;28;20124;-64
2023/12/12 05:52:50;;;;;;;2.28;0.40;;;9.00;91.10;;;;;;5000333;28;20034;-65
2023/12/12 05:55:16;;;;;;;8.60;0.60;;;9.00;91.10;;;;;;4999083;28;20035;-64
2023/12/12 05:57:42;;;;;;;6.57;0.60;;;9.10;91.10;;;;;;4999048;28;20145;-65
2023/12/12 06:00:08;;;;;;;5.45;0.65;;;9.10;91.10;;;;;;4999308;28;20089;-64
2023/12/12 06:02:33;;;;;;;9.32;0.65;;;9.10;91.10;;;;;;4999682;28;20031;-64
2023/12/12 06:04:59;;;;;;;7.95;0.85;;;9.10;91.10;;;;;;4998516;28;20029;-64
2023/12/12 06:07:25;;;;;;;10.68;0.50;;;9.10;91.10;;;;;;4998173;28;20037;-65
2023/12/12 06:09:51;;;;;;;3.70;0.70;;;9.20;91.10;;;;;;4998196;28;20037;-65
2023/12/12 06:12:17;;;;;;;6.65;0.70;;;9.20;91.10;;;;;;4998347;28;20092;-65
2023/12/12 06:14:44;;;;;;;5.28;0.80;;;9.20;91.10;;;;;;4998771;28;20038;-64
2023/12/12 06:17:11;;;;;;;4.80;0.60;;;9.20;91.00;;;;;;4998216;28;20583;-65
2023/12/12 06:19:37;;;;;;;3.10;0.50;;;9.30;91.10;;;;;;4998009;28;20912;-65
2023/12/12 06:22:03;;;;;;;3.70;0.82;;;9.20;91.10;;;;;;4998595;28;20113;-65
2023/12/12 06:24:28;;;;;;;6.47;1.15;;;9.30;91.10;;;;;;4999605;28;20035;-65
2023/12/12 06:26:54;;;;;;;2.88;0.70;;;9.30;91.10;;;;;;4999128;28;20474;-65
2023/12/12 06:29:20;;;;;;;0.98;0.57;;;9.30;91.10;;;;;;4998705;28;20026;-65
2023/12/12 06:31:46;;;;;;;0.60;0.38;;;9.30;91.10;;;;;;4998584;28;20486;-65
2023/12/12 06:34:11;;;;;;;0.60;0.40;;;9.30;91.10;;;;;;4999064;28;20030;-64
2023/12/12 06:36:37;;;;;;;1.90;0.40;;;9.30;91.10;;;;;;4997362;28;20022;-64
2023/12/12 06:39:09;;;;;;;1.95;0.40;;;9.40;91.20;;;;;;4999237;28;20030;-64
2023/12/12 06:41:35;;;;;;;0.70;0.40;;;9.40;91.20;;;;;;4998480;28;20094;-65
2023/12/12 06:44:01;;;;;;;0.50;0.30;;;9.40;91.20;;;;;;4998771;28;20054;-64
2023/12/12 06:46:27;;;;;;;3.55;0.30;;;9.40;91.20;;;;;;4999508;28;20026;-65
2023/12/12 06:48:52;;;;;;;0.43;0.35;;;9.40;91.20;;;;;;4998369;28;20376;-65
2023/12/12 06:51:18;;;;;;;0.82;0.50;;;9.40;91.20;;;;;;4998891;28;20042;-65
2023/12/12 06:53:44;;;;;;;1.00;0.40;;;9.50;91.20;;;;;;4999126;28;20501;-64
2023/12/12 06:56:10;;;;;;;2.15;0.40;;;9.50;91.20;;;;;;5000372;28;20490;-64
2023/12/12 06:58:36;;;;;;;1.23;0.55;;;9.50;91.20;;;;;;4998791;28;20165;-65
2023/12/12 07:01:03;;;;;;;3.55;0.63;;;9.50;91.20;;;;;;4998756;28;20569;-64
2023/12/12 07:03:29;;;;;;;1.42;0.60;;;9.50;91.20;;;;;;4999425;28;20044;-65
2023/12/12 07:05:54;;;;;;;4.80;1.30;;;9.60;91.20;;;;;;4999666;28;20040;-65
2023/12/12 07:08:20;;;;;;;6.50;1.25;;;9.60;91.20;;;;;;5000154;28;20129;-65
2023/12/12 07:10:47;;;;;;;4.70;1.40;;;9.50;91.20;;;;;;4998953;28;20053;-64
2023/12/12 07:13:13;;;;;;;9.00;1.52;;;9.50;91.20;;;;;;4999353;28;20034;-65
2023/12/12 07:15:39;;;;;;;2.63;0.90;;;9.60;91.30;;;;;;4999421;28;20057;-65
2023/12/12 07:18:10;;;;;;;2.50;1.02;;;9.50;91.30;;;;;;5000054;28;20129;-65
2023/12/12 07:20:37;;;;;;;4.40;1.15;;;9.50;91.30;;;;;;4997339;28;20427;-65
2023/12/12 07:23:04;;;;;;;3.30;0.90;;;9.50;91.40;;;;;;4998388;28;20564;-64
2023/12/12 07:25:29;;;;;;;5.82;1.10;;;9.60;91.40;;;;;;4998011;28;20168;-65
2023/12/12 07:27:55;;;;;;;1.95;0.90;;;9.60;91.40;;;;;;4997898;28;20120;-64
2023/12/12 07:30:24;;;;;;;4.07;1.10;;;9.60;91.50;;;;;;4998626;28;20034;-64
2023/12/12 07:32:49;;;;;;;2.78;0.90;;;9.60;91.50;;;;;;4997994;28;20103;-65
2023/12/12 07:35:20;;;;;;;3.42;0.80;;;9.60;91.60;;;;;;4996869;28;20128;-65
2023/12/12 07:37:46;;;;;;;3.72;0.85;;;9.60;91.60;;;;;;4997366;28;20046;-64
2023/12/12 07:40:13;;;;;;;0.75;0.75;;;9.60;91.60;;;;;;4996958;28;20031;-65
2023/12/12 07:42:39;;;;;;;2.03;0.85;;;9.60;92.00;;;;;;4997416;28;20038;-64
2023/12/12 07:45:06;;;;;;;1.40;0.90;;;9.60;91.60;;;;;;4999439;28;20035;-64
2023/12/12 07:47:31;;;;;;;0.90;0.90;;;9.60;91.60;;;;;;5001418;28;20397;-65
2023/12/12 07:49:57;;;;;;;1.10;0.90;;;9.70;91.70;;;;;;5001779;28;20034;-65
2023/12/12 07:52:23;;;;;;;1.77;1.50;;;9.60;91.70;;;;;;5001631;28;20046;-65
2023/12/12 07:54:49;;;;;;;1.85;1.35;;;9.70;91.70;;;;;;5001892;28;20034;-65
2023/12/12 07:57:15;;;;;;;2.13;1.20;;;9.70;91.80;;;;;;5001778;28;20037;-65
2023/12/12 07:59:42;;;;;;;1.55;1.15;;;9.70;91.80;;;;;;5001147;28;20580;-65
2023/12/12 08:02:07;;;;;;;2.20;1.23;;;9.80;91.80;;;;;;5001806;28;20034;-65
2023/12/12 08:04:36;;;;;;;2.05;1.10;;;9.80;91.80;;;;;;5001873;28;20041;-65
2023/12/12 08:07:03;;;;;;;2.70;1.00;;;9.80;91.80;;;;;;5002445;28;20415;-65
2023/12/12 08:09:31;;;;;;;1.30;1.20;;;9.80;91.70;;;;;;5002064;28;20018;-65
2023/12/12 08:11:57;;;;;;;3.13;1.00;;;9.80;91.70;;;;;;5001814;28;20156;-64
2023/12/12 08:14:23;;;;;;;1.08;0.88;;;9.90;91.70;;;;;;5002782;28;20121;-65
2023/12/12 08:16:48;;;;;;;2.03;0.98;;;9.90;91.70;;;;;;5002183;28;20449;-65
2023/12/12 08:19:15;;;;;;;0.63;0.63;;;9.90;91.70;;;;;;5001636;28;20026;-64
2023/12/12 08:21:41;;;;;;;0.75;0.75;;;9.90;91.80;;;;;;5001170;28;20537;-65
2023/12/12 08:24:07;;;;;;;1.70;1.60;;;9.90;91.70;;;;;;5002084;28;20038;-65
2023/12/12 08:26:40;;;;;;;4.22;1.70;;;9.90;91.70;;;;;;5002169;28;20532;-65
2023/12/12 08:29:06;;;;;;;2.08;1.58;;;9.90;91.80;;;;;;5003220;28;20073;-64
2023/12/12 08:31:32;;;;;;;1.63;1.50;;;10.00;91.70;;;;;;5000703;28;20049;-65
2023/12/12 08:33:57;;;;;;;1.50;1.40;;;10.00;91.70;;;;;;5015851;28;20570;-64
2023/12/12 08:36:23;;;;;;;2.08;1.55;;;10.00;91.70;;;;;;5000895;28;20564;-65
2023/12/12 08:38:50;;;;;;;1.75;1.65;;;10.00;91.70;;;;;;5000627;28;20421;-64
2023/12/12 08:41:16;;;;;;;1.75;1.65;;;10.00;91.70;;;;;;5000178;28;20052;-65
2023/12/12 08:43:41;;;;;;;1.90;1.80;;;10.00;91.70;;;;;;5001297;28;20034;-64
2023/12/12 08:46:07;;;;;;;2.35;2.10;;;10.00;91.70;;;;;;5001580;28;20042;-64
2023/12/12 08:48:33;;;;;;;2.10;1.90;;;10.00;91.60;;;;;;5001297;28;20022;-65
2023/12/12 08:50:58;;;;;;;2.35;2.15;;;10.10;91.60;;;;;;5000903;28;20087;-65
2023/12/12 08:53:26;;;;;;;2.13;1.85;;;10.10;91.60;;;;;;4999698;28;20042;-65
2023/12/12 08:55:53;;;;;;;1.80;1.70;;;10.00;91.60;;;;;;4998334;28;20585;-65
2023/12/12 08:58:19;;;;;;;1.50;1.40;;;10.10;91.60;;;;;;5000281;28;20073;-65
2023/12/12 09:00:45;;;;;;;1.73;1.60;;;10.10;91.60;;;;;;4999408;28;20137;-65
2023/12/12 09:03:10;;;;;;;1.70;1.60;;;10.10;91.60;;;;;;5000595;28;20038;-65
2023/12/12 09:05:37;;;;;;;2.30;1.65;;;10.10;91.60;;;;;;5002474;28;20069;-65
2023/12/12 09:08:02;;;;;;;3.15;1.88;;;10.10;91.70;;;;;;5002507;28;20521;-65
2023/12/12 09:10:28;;;;;;;2.30;1.35;;;10.10;91.60;;;;;;5003062;28;20068;-65
2023/12/12 09:12:54;;;;;;;1.35;1.02;;;10.10;91.60;;;;;;5002224;28;20149;-64
2023/12/12 09:15:19;;;;;;;2.70;1.27;;;10.10;91.60;;;;;;5001530;28;20030;-65
2023/12/12 09:17:45;;;;;;;1.00;0.85;;;10.10;91.60;;;;;;5001905;28;20436;-65
2023/12/12 09:20:12;;;;;;;2.28;1.08;;;10.10;91.60;;;;;;5001345;28;20057;-65
2023/12/12 09:22:37;;;;;;;1.85;0.80;;;10.00;91.60;;;;;;5001654;28;20092;-65
2023/12/12 09:25:04;;;;;;;0.80;0.63;;;10.10;91.70;;;;;;5001049;28;20034;-65
2023/12/12 09:27:30;;;;;;;0.88;0.60;;;10.00;91.70;;;;;;5000860;28;20033;-65
2023/12/12 09:29:55;;;;;;;0.50;0.50;;;10.20;91.70;;;;;;5002201;28;20030;-65
2023/12/12 09:32:21;;;;;;;1.35;0.60;;;10.10;91.70;;;;;;5000739;28;20026;-66
2023/12/12 09:34:46;;;;;;;1.17;1.02;;;10.10;91.70;;;;;;5000681;28;20038;-65
2023/12/12 09:37:12;;;;;;;0.88;0.80;;;10.10;91.70;;;;;;5000483;28;20026;-66
2023/12/12 09:39:38;;;;;;;1.70;0.60;;;10.10;91.70;;;;;;5000245;28;20421;-65
2023/12/12 09:42:11;;;;;;;1.00;0.70;;;10.10;91.80;;;;;;5000591;28;20041;-66
2023/12/12 09:44:40;;;;;;;1.15;0.90;;;10.10;91.80;;;;;;5001306;28;20502;-66
2023/12/12 09:47:07;;;;;;;1.70;1.17;;;10.10;91.80;;;;;;5001179;28;20540;-66
2023/12/12 09:49:33;;;;;;;1.00;0.90;;;10.10;91.80;;;;;;5000507;28;20425;-65
2023/12/12 09:52:01;;;;;;;0.85;0.57;;;10.10;91.80;;;;;;4999927;28;20069;-65
2023/12/12 09:54:27;;;;;;;2.47;0.60;;;10.10;91.90;;;;;;5001322;28;20061;-65
2023/12/12 09:56:56;;;;;;;1.00;0.70;;;10.10;91.90;;;;;;5001006;28;20041;-66
2023/12/12 09:59:22;;;;;;;1.10;0.80;;;10.10;91.90;;;;;;5001049;28;20113;-66
2023/12/12 10:01:49;;;;;;;2.60;0.88;;;10.10;91.90;;;;;;5001065;28;20128;-66
2023/12/12 10:04:18;;;;;;;0.88;0.60;;;10.20;91.90;;;;;;5001603;28;20092;-66
2023/12/12 10:06:53;;;;;;;1.10;0.85;;;10.20;91.90;;;;;;5000804;28;20033;-66
2023/12/12 10:09:20;;;;;;;;;;;10.20;91.90;;;;;;5001568;28;20118;-66
2023/12/12 10:11:45;;;;;;;1.20;0.40;;;10.20;92.10;;;;;;4999790;28;19917;-67
2023/12/12 10:14:11;;;;;;;3.78;0.60;;;10.20;91.70;;;;;;5001280;28;20034;-67
2023/12/12 10:16:37;;;;;;;6.03;0.90;;;10.30;91.70;;;;;;5000953;28;20085;-66
2023/12/12 10:19:03;;;;;;;3.80;0.90;;;10.20;91.70;;;;;;5001782;28;20717;-66
2023/12/12 10:21:30;;;;;;;4.00;1.00;;;10.30;91.80;;;;;;5001406;28;20102;-66
2023/12/12 10:23:56;;;;;;;1.48;1.30;;;10.20;91.80;;;;;;5001164;28;20583;-66
2023/12/12 10:26:31;;;;;;;1.85;1.00;;;10.20;91.80;;;;;;5001607;28;20046;-66
2023/12/12 10:28:58;;;;;;;1.92;1.50;;;10.30;91.90;;;;;;5000912;28;20061;-66
2023/12/12 10:31:24;;;;;;;1.77;0.70;;;10.20;91.80;;;;;;5001267;28;20037;-66
2023/12/12 10:33:50;;;;;;;2.08;0.45;;;10.30;91.90;;;;;;5000918;28;20067;-66
2023/12/12 10:36:16;;;;;;;1.58;1.20;;;10.30;91.90;;;;;;5001791;28;20081;-66
2023/12/12 10:38:42;;;;;;;1.90;0.73;;;10.30;91.90;;;;;;5000640;28;20030;-67
2023/12/12 10:41:12;;;;;;;2.13;0.65;;;10.30;91.90;;;;;;5000187;28;20034;-66
2023/12/12 10:43:40;;;;;;;1.35;0.50;;;10.30;92.00;;;;;;4999831;28;20552;-66
2023/12/12 10:46:18;;;;;;;1.58;0.90;;;10.30;92.00;;;;;;5000273;28;20125;-66
2023/12/12 10:48:46;;;;;;;1.13;0.65;;;10.40;92.00;;;;;;4999049;28;20113;-66
2023/12/12 10:51:13;;;;;;;1.80;0.90;;;10.40;92.00;;;;;;4999276;28;20066;-66
2023/12/12 10:53:41;;;;;;;0.98;0.70;;;10.40;92.00;;;;;;5001240;28;20041;-66
2023/12/12 10:56:14;;;;;;;0.85;0.80;;;10.40;92.00;;;;;;5000896;28;20084;-65
2023/12/12 10:58:42;;;;;;;2.92;0.70;;;10.40;92.10;;;;;;4999691;28;20047;-65
2023/12/12 11:01:09;;;;;;;3.75;0.82;;;10.40;92.10;;;;;;5000264;28;20038;-65
2023/12/12 11:03:36;;;;;;;0.80;0.50;;;10.50;92.10;;;;;;5000025;28;20030;-65
2023/12/12 11:06:04;;;;;;;0.60;0.50;;;10.40;92.10;;;;;;4999995;28;20040;-65
2023/12/12 11:08:30;;;;;;;3.10;0.90;;;10.40;92.20;;;;;;4999075;28;20030;-66
2023/12/12 11:10:56;;;;;;;3.30;1.45;;;10.40;92.30;;;;;;4999023;28;20042;-66
2023/12/12 11:13:26;;;;;;;0.80;0.70;;;10.40;92.30;;;;;;4999058;28;20040;-66
2023/12/12 11:15:54;;;;;;;0.65;0.60;;;10.40;92.30;;;;;;5000211;28;20040;-66
2023/12/12 11:18:23;;;;;;;0.93;0.77;;;10.40;92.40;;;;;;4999324;28;20065;-66
2023/12/12 11:20:49;;;;;;;1.05;0.90;;;10.40;92.40;;;;;;4998858;28;20034;-66
2023/12/12 11:23:46;;;;;;;0.50;0.50;;;10.40;92.50;;;;;;5000505;28;20495;-66
2023/12/12 11:26:16;;;;;;;2.88;0.80;;;10.50;92.70;;;;;;5000088;28;20042;-65
2023/12/12 11:28:45;;;;;;;1.33;0.70;;;10.50;92.50;;;;;;4998816;28;20080;-66
2023/12/12 11:31:10;;;;;;;1.55;1.00;;;10.50;92.40;;;;;;4999859;28;20038;-66
2023/12/12 11:33:56;;;;;;;1.98;0.90;;;10.60;92.70;;;;;;4999694;28;20049;-66
2023/12/12 11:36:54;;;;;;;0.60;0.60;;;10.60;92.30;;;;;;5000018;28;20521;-66
2023/12/12 11:39:34;;;;;;;0.50;0.50;;;10.60;92.50;;;;;;4999694;28;20504;-65
2023/12/12 11:42:03;;;;;;;0.80;0.70;;;10.70;92.30;;;;;;4999693;28;20050;-66
2023/12/12 11:44:49;;;;;;;1.02;0.80;;;10.70;92.30;;;;;;4999718;28;20034;-66
2023/12/12 11:47:19;;;;;;;0.75;0.60;;;10.60;92.50;;;;;;4999406;28;20046;-66
2023/12/12 11:49:44;;;;;;;0.60;0.50;;;10.70;92.40;;;;;;5000106;28;20045;-66
2023/12/12 11:52:10;;;;;;;0.60;0.40;;;10.70;92.50;;;;;;5001354;28;20413;-65
2023/12/12 11:54:38;;;;;;;0.50;0.50;;;10.70;92.50;;;;;;5000520;28;20129;-66
2023/12/12 11:57:04;;;;;;;0.80;0.60;;;10.70;92.50;;;;;;4999459;28;20042;-66
2023/12/12 11:59:32;;;;;;;1.25;0.50;;;10.70;92.40;;;;;;4999400;28;20041;-66
2023/12/12 12:01:58;;;;;;;0.73;0.60;;;10.70;92.40;;;;;;4999275;28;20076;-66
2023/12/12 12:04:24;;;;;;;1.00;0.90;;;10.70;92.30;;;;;;4999724;28;20085;-66
2023/12/12 12:06:50;;;;;;;1.00;0.90;;;10.70;92.30;;;;;;4999523;28;20033;-66
2023/12/12 12:09:16;;;;;;;2.30;0.88;;;10.70;92.30;;;;;;4998509;28;20134;-65
2023/12/12 12:11:47;;;;;;;0.85;0.82;;;10.70;92.30;;;;;;4998138;28;20030;-66
2023/12/12 12:14:15;;;;;;;1.55;0.98;;;10.70;92.30;;;;;;4999674;28;20050;-66
2023/12/12 12:16:41;;;;;;;1.10;1.00;;;10.70;92.30;;;;;;4999256;28;20666;-66
2023/12/12 12:19:26;;;;;;;1.30;1.20;;;10.70;92.30;;;;;;4999214;28;20042;-67
2023/12/12 12:21:52;;;;;;;1.42;1.30;;;10.70;92.40;;;;;;4998614;28;20119;-66
2023/12/12 12:24:17;;;;;;;2.25;1.30;;;10.70;92.30;;;;;;5000021;28;20050;-66
2023/12/12 12:26:43;;;;;;;1.88;1.48;;;10.60;92.20;;;;;;4998644;28;20034;-66
2023/12/12 12:29:09;;;;;;;1.50;1.40;;;10.70;92.30;;;;;;4999000;28;20065;-66
2023/12/12 12:31:38;;;;;;;1.48;1.38;;;10.70;92.30;;;;;;5002239;28;20437;-66
2023/12/12 12:34:03;;;;;;;2.10;1.50;;;10.70;92.30;;;;;;5003089;28;20426;-66
2023/12/12 12:36:38;;;;;;;1.90;1.45;;;10.70;92.30;;;;;;5003906;28;20034;-66
2023/12/12 12:39:09;;;;;;;2.47;1.70;;;10.70;92.40;;;;;;5003666;28;20107;-66
2023/12/12 12:41:35;;;;;;;1.60;1.38;;;10.60;92.30;;;;;;5002057;28;20097;-66
2023/12/12 12:44:01;;;;;;;1.60;1.50;;;10.70;92.30;;;;;;5002415;28;20060;-66
2023/12/12 12:46:27;;;;;;;1.40;1.27;;;10.70;92.40;;;;;;5002958;28;20026;-66
2023/12/12 12:48:52;;;;;;;2.42;1.30;;;10.60;92.40;;;;;;5016556;28;20469;-66
2023/12/12 12:51:18;;;;;;;2.70;1.65;;;10.60;92.40;;;;;;5001898;28;20510;-66